Time;durP1;ratioP1;P1;durP2;ratioP2;P2;SDS_P1;SDS_P2;PMS_P1;PMS_P2;Temp;Humidity;BMP_temperature;BMP_pressure;BME280_temperature;BME280_humidity;BME280_pressure;Samples;Min_cycle;Max_cycle;Signal;HPM_P1;HPM_P2
2023/01/16 16:18:58;;;;;;;13.60;7.10;;;19.00;57.30;;;;;;5078989;28;20402;-74
2023/01/16 16:21:28;;;;;;;10.82;6.18;;;19.10;57.10;;;;;;5086215;28;20411;-74
2023/01/16 16:23:58;;;;;;;;;;;19.10;57.40;;;;;;5088066;28;20051;-74
2023/01/16 16:26:23;;;;;;;;;;;19.10;57.70;;;;;;5088491;28;19908;-74
2023/01/16 16:28:49;;;;;;;9.98;5.95;;;19.10;57.70;;;;;;5099235;22;19898;-72
2023/01/16 16:31:36;;;;;;;15.10;6.70;;;19.10;57.40;;;;;;5067476;28;20021;-74
2023/01/16 16:34:06;;;;;;;17.98;7.38;;;19.10;57.20;;;;;;5067237;28;20589;-73
2023/01/16 16:36:36;;;;;;;;;;;19.20;57.20;;;;;;5067337;28;20021;-73
2023/01/16 16:39:02;;;;;;;;;;;19.20;56.70;;;;;;5068819;28;20279;-73
2023/01/16 16:44:24;;;;;;;17.27;7.40;;;19.30;56.70;;;;;;5067205;28;20464;-72
2023/01/16 16:46:50;;;;;;;19.45;8.00;;;19.30;57.10;;;;;;5068097;28;20036;-73
2023/01/16 16:49:15;;;;;;;18.58;7.65;;;19.30;56.50;;;;;;5067174;28;20032;-72
2023/01/16 16:51:43;;;;;;;16.83;6.55;;;19.30;57.00;;;;;;5068139;28;20532;-72
2023/01/16 16:54:13;;;;;;;16.42;6.80;;;19.40;57.10;;;;;;5068335;28;20024;-72
2023/01/16 16:56:53;;;;;;;27.58;7.18;;;19.30;57.10;;;;;;5066555;28;20414;-73
2023/01/16 16:59:24;;;;;;;18.13;6.70;;;19.30;56.90;;;;;;5068054;28;20032;-73
2023/01/16 17:01:53;;;;;;;15.13;6.80;;;19.30;57.20;;;;;;5066840;28;20032;-73
2023/01/16 17:04:19;;;;;;;13.60;6.85;;;19.30;57.40;;;;;;5067916;28;20530;-71
2023/01/16 17:06:47;;;;;;;16.67;6.15;;;19.30;57.60;;;;;;5067460;28;20160;-72
2023/01/16 17:09:14;;;;;;;18.95;6.32;;;19.30;57.70;;;;;;5067821;28;20055;-73
2023/01/16 17:11:41;;;;;;;19.05;7.10;;;19.30;57.90;;;;;;5067711;28;20544;-72
2023/01/16 17:14:06;;;;;;;19.30;6.85;;;19.30;58.40;;;;;;5067543;28;20385;-71
2023/01/16 17:16:33;;;;;;;28.88;7.40;;;19.30;58.20;;;;;;5066018;28;20036;-72
2023/01/16 17:19:21;;;;;;;17.75;6.43;;;19.40;58.00;;;;;;5066361;28;20043;-73
2023/01/16 17:21:47;;;;;;;22.52;7.20;;;19.30;57.90;;;;;;5065595;28;20413;-73
2023/01/16 17:24:19;;;;;;;18.00;7.20;;;19.40;58.80;;;;;;5046859;28;20029;-72
2023/01/16 17:26:45;;;;;;;17.88;6.70;;;19.30;58.20;;;;;;5048435;28;20025;-72
2023/01/16 17:29:11;;;;;;;16.70;6.38;;;19.30;58.50;;;;;;5055982;28;20037;-72
2023/01/16 17:31:39;;;;;;;15.95;6.93;;;19.30;58.50;;;;;;5051836;28;20031;-72
2023/01/16 17:34:05;;;;;;;13.82;6.60;;;19.30;58.50;;;;;;5051334;28;20051;-71
2023/01/16 17:36:32;;;;;;;15.20;6.82;;;19.30;58.50;;;;;;5050702;28;20476;-72
2023/01/16 17:38:58;;;;;;;16.48;7.20;;;19.30;58.50;;;;;;5050300;28;20139;-73
2023/01/16 17:46:39;;;;;;;15.57;6.65;;;19.40;58.40;;;;;;5051381;28;20480;-73
2023/01/16 17:49:05;;;;;;;15.73;6.70;;;19.40;58.50;;;;;;5050669;28;20049;-74
2023/01/16 17:51:31;;;;;;;22.58;13.40;;;19.40;58.30;;;;;;5050224;28;20029;-76
2023/01/16 17:53:58;;;;;;;30.63;11.52;;;19.20;50.20;;;;;;5049723;28;20062;-72
2023/01/16 17:56:24;;;;;;;16.88;9.88;;;19.00;49.10;;;;;;5050870;28;20503;-74
2023/01/16 17:58:57;;;;;;;20.42;9.50;;;19.00;51.00;;;;;;5041950;28;20043;-73
2023/01/16 18:01:26;;;;;;;24.15;9.73;;;19.00;51.50;;;;;;5061580;28;20028;-72
2023/01/16 18:04:00;;;;;;;23.65;9.82;;;19.00;52.40;;;;;;5048642;28;20044;-73
2023/01/16 18:06:26;;;;;;;17.60;9.50;;;19.10;52.70;;;;;;5047020;28;20089;-73
2023/01/16 18:08:54;;;;;;;17.38;9.02;;;19.10;53.30;;;;;;5050890;28;20032;-73
2023/01/16 18:19:34;;;;;;;24.40;9.30;;;19.20;54.60;;;;;;5056399;28;20467;-73
2023/01/16 18:22:00;;;;;;;17.77;8.85;;;19.30;54.70;;;;;;5066729;28;20039;-73
2023/01/16 18:24:31;;;;;;;20.83;8.57;;;19.30;54.70;;;;;;5056043;28;20431;-74
2023/01/16 18:26:58;;;;;;;42.92;9.68;;;19.30;54.80;;;;;;5049852;28;20276;-74
2023/01/16 18:29:24;;;;;;;21.17;9.13;;;19.30;54.90;;;;;;5033013;28;20041;-73
2023/01/16 18:34:35;;;;;;;23.25;9.68;;;19.30;55.00;;;;;;5050759;28;20442;-73
2023/01/16 18:37:00;;;;;;;22.27;8.63;;;19.40;55.20;;;;;;5049133;28;20539;-73
2023/01/16 19:02:10;;;;;;;14.05;8.25;;;19.40;55.90;;;;;;5050195;28;20037;-72
2023/01/16 19:04:36;;;;;;;17.80;8.18;;;19.40;56.10;;;;;;5048921;28;20420;-72
2023/01/16 19:07:07;;;;;;;17.40;8.05;;;19.40;56.10;;;;;;5049541;28;20085;-72
2023/01/16 19:09:34;;;;;;;13.98;7.80;;;19.40;56.20;;;;;;5048891;28;20120;-73
2023/01/16 19:12:05;;;;;;;17.33;8.02;;;19.40;56.30;;;;;;5048686;28;20021;-73
2023/01/16 19:14:36;;;;;;;16.17;8.43;;;19.40;56.30;;;;;;5032858;28;20135;-73
2023/01/16 19:17:02;;;;;;;15.30;8.52;;;19.40;56.30;;;;;;5049656;28;20068;-73
2023/01/16 19:19:27;;;;;;;18.20;8.57;;;19.40;56.40;;;;;;5048254;28;20056;-72
2023/01/16 19:21:57;;;;;;;16.00;7.43;;;19.40;56.50;;;;;;5049923;28;20037;-72
2023/01/16 19:24:27;;;;;;;17.63;8.02;;;19.40;56.60;;;;;;5049628;28;20499;-72
2023/01/16 19:26:53;;;;;;;16.05;7.22;;;19.40;56.60;;;;;;5047992;28;20488;-72
2023/01/16 19:29:21;;;;;;;14.73;7.53;;;19.40;56.50;;;;;;5049186;28;20116;-72
2023/01/16 19:31:48;;;;;;;17.52;8.30;;;19.40;56.60;;;;;;5048494;28;20135;-72
2023/01/16 19:34:13;;;;;;;16.05;7.93;;;19.40;56.60;;;;;;5049689;28;20037;-72
2023/01/16 19:36:39;;;;;;;13.82;7.45;;;19.40;56.70;;;;;;5049214;28;20055;-72
2023/01/16 19:39:07;;;;;;;15.65;7.60;;;19.40;56.80;;;;;;5048086;28;20400;-72
2023/01/16 19:47:03;;;;;;;14.65;8.07;;;19.40;56.90;;;;;;5048081;28;20039;-72
2023/01/16 19:49:29;;;;;;;16.73;8.02;;;19.40;57.00;;;;;;5047968;28;20063;-72
2023/01/16 19:51:55;;;;;;;16.63;7.70;;;19.40;57.00;;;;;;5047300;28;20476;-72
2023/01/16 19:54:22;;;;;;;14.73;6.80;;;19.50;57.10;;;;;;5048755;28;20078;-72
2023/01/16 19:56:48;;;;;;;14.00;7.32;;;19.40;57.10;;;;;;5048939;28;20515;-72
2023/01/16 19:59:14;;;;;;;14.00;7.15;;;19.40;57.10;;;;;;5049239;28;20053;-72
2023/01/16 20:01:53;;;;;;;13.55;7.32;;;19.40;57.20;;;;;;5048000;28;20057;-72
2023/01/16 20:04:20;;;;;;;13.38;7.10;;;19.50;57.30;;;;;;5048301;28;20447;-72
2023/01/16 20:06:46;;;;;;;12.90;7.45;;;19.50;57.40;;;;;;5048844;28;20056;-72
2023/01/16 20:09:12;;;;;;;15.50;7.85;;;19.40;57.40;;;;;;5049019;28;20052;-73
2023/01/16 20:14:22;;;;;;;14.43;7.05;;;19.50;57.40;;;;;;5048748;28;20104;-72
2023/01/16 20:16:48;;;;;;;13.65;6.90;;;19.40;57.40;;;;;;5047049;28;20067;-72
2023/01/16 20:19:14;;;;;;;14.57;7.40;;;19.50;57.30;;;;;;5047960;28;20099;-72
2023/01/16 20:21:41;;;;;;;17.50;7.38;;;19.40;57.40;;;;;;5049094;28;20551;-72
2023/01/16 20:24:07;;;;;;;15.43;7.20;;;19.50;57.50;;;;;;5049006;28;20029;-72
2023/01/16 20:26:34;;;;;;;15.07;6.85;;;19.50;57.60;;;;;;5047361;28;20028;-72
2023/01/16 20:29:01;;;;;;;15.95;7.78;;;19.50;57.60;;;;;;5049025;28;20036;-72
2023/01/16 20:31:28;;;;;;;14.60;7.13;;;19.50;57.60;;;;;;5047882;28;20041;-72
2023/01/16 20:33:57;;;;;;;13.93;7.32;;;19.50;57.70;;;;;;5047762;28;20048;-72
2023/01/16 20:36:24;;;;;;;18.73;6.93;;;19.50;57.70;;;;;;5048592;28;20495;-72
2023/01/16 20:38:51;;;;;;;12.32;7.25;;;19.50;57.80;;;;;;5047324;28;20419;-73
2023/01/16 20:46:55;;;;;;;18.88;6.70;;;19.50;58.00;;;;;;5048642;28;20033;-73
2023/01/16 20:49:21;;;;;;;15.25;7.07;;;19.50;58.10;;;;;;5047618;28;20526;-73
2023/01/16 20:51:48;;;;;;;20.58;7.13;;;19.50;58.20;;;;;;5048412;28;20044;-78
2023/01/16 20:54:14;;;;;;;14.48;7.30;;;19.60;57.60;;;;;;5048304;28;20166;-74
2023/01/16 20:56:40;;;;;;;21.15;7.15;;;19.60;58.00;;;;;;5029371;28;20086;-74
2023/01/16 20:59:06;;;;;;;15.15;6.72;;;19.60;57.90;;;;;;5062980;28;20028;-72
2023/01/16 21:01:32;;;;;;;11.32;6.43;;;19.60;57.10;;;;;;5047495;28;20698;-73
2023/01/16 21:03:57;;;;;;;21.17;7.10;;;19.50;57.90;;;;;;5064311;28;20041;-76
2023/01/16 21:06:23;;;;;;;40.75;7.15;;;19.50;58.10;;;;;;5050691;28;20051;-73
2023/01/16 21:08:49;;;;;;;17.58;6.43;;;19.60;58.20;;;;;;5031554;28;20026;-72
2023/01/16 21:14:12;;;;;;;20.40;7.00;;;19.60;58.20;;;;;;5052581;28;20029;-73
2023/01/16 21:22:19;;;;;;;101.93;79.25;;;19.60;57.60;;;;;;5069344;28;20104;-73
2023/01/16 21:24:45;;;;;;;79.97;61.83;;;19.50;57.50;;;;;;5069643;28;20060;-74
2023/01/16 21:27:12;;;;;;;75.05;55.25;;;19.50;56.90;;;;;;5056678;28;20460;-73
2023/01/16 21:29:38;;;;;;;64.30;49.58;;;19.50;56.90;;;;;;5060955;28;20043;-73
2023/01/16 21:32:05;;;;;;;61.60;46.88;;;19.50;56.90;;;;;;5057160;28;20029;-72
2023/01/16 21:34:33;;;;;;;56.88;45.58;;;19.50;57.00;;;;;;5057780;28;20024;-74
2023/01/16 21:36:59;;;;;;;59.13;44.70;;;19.60;57.20;;;;;;5059818;28;20032;-73
2023/01/16 21:39:25;;;;;;;60.58;43.33;;;19.60;57.30;;;;;;5048593;28;20041;-74
2023/01/16 21:47:21;;;;;;;56.05;41.75;;;19.60;57.80;;;;;;5052521;28;20033;-73
2023/01/16 21:49:48;;;;;;;58.28;43.85;;;19.60;58.10;;;;;;5049906;28;20039;-72
2023/01/16 21:52:14;;;;;;;55.35;40.20;;;19.60;57.60;;;;;;5051128;28;20033;-73
2023/01/16 21:54:40;;;;;;;55.30;41.97;;;19.60;57.90;;;;;;5033523;28;20087;-73
2023/01/16 21:57:06;;;;;;;52.03;40.20;;;19.60;57.60;;;;;;5051251;28;20396;-73
2023/01/16 21:59:32;;;;;;;50.95;39.60;;;19.60;58.20;;;;;;5051427;28;20044;-74
2023/01/16 22:01:57;;;;;;;53.05;39.38;;;19.60;57.70;;;;;;5051039;28;20048;-74
2023/01/16 22:04:23;;;;;;;51.13;38.92;;;19.60;57.60;;;;;;5051754;28;20498;-73
2023/01/16 22:06:49;;;;;;;50.45;38.17;;;19.60;57.60;;;;;;5049802;28;20044;-74
2023/01/16 22:09:16;;;;;;;51.60;38.17;;;19.60;57.80;;;;;;5049950;28;20036;-73
2023/01/16 22:22:49;;;;;;;44.63;36.38;;;19.70;57.90;;;;;;5050848;28;20104;-74
2023/01/16 22:25:15;;;;;;;52.17;36.00;;;19.70;58.20;;;;;;5049607;28;20036;-74
2023/01/16 22:27:42;;;;;;;47.13;35.95;;;19.70;58.70;;;;;;5049849;28;20112;-73
2023/01/16 22:30:09;;;;;;;46.72;36.22;;;19.60;58.30;;;;;;5059889;22;20118;-73
2023/01/16 22:32:35;;;;;;;48.20;36.03;;;19.60;58.20;;;;;;5050002;28;20451;-74
2023/01/16 22:35:00;;;;;;;44.58;37.05;;;19.70;58.30;;;;;;5033183;28;20037;-73
2023/01/16 22:37:26;;;;;;;44.55;35.80;;;19.70;58.60;;;;;;5032546;28;20357;-73
2023/01/16 22:39:52;;;;;;;43.35;35.38;;;19.60;58.30;;;;;;5050700;28;20029;-74
2023/01/16 22:42:18;;;;;;;44.75;35.83;;;19.70;58.30;;;;;;5032760;28;20476;-74
2023/01/16 22:47:30;;;;;;;43.90;34.53;;;19.70;58.30;;;;;;5050731;28;20067;-74
2023/01/16 22:49:56;;;;;;;44.92;33.95;;;19.70;58.50;;;;;;5050795;28;20124;-74
2023/01/16 22:52:22;;;;;;;43.00;33.78;;;19.70;58.50;;;;;;5032435;28;20128;-75
2023/01/16 22:54:51;;;;;;;43.63;34.35;;;19.70;58.60;;;;;;5048976;28;20037;-74
2023/01/16 22:57:16;;;;;;;42.70;33.08;;;19.70;58.60;;;;;;5050373;28;20531;-75
2023/01/16 22:59:42;;;;;;;46.95;35.38;;;19.70;59.20;;;;;;5050357;28;20078;-74
2023/01/16 23:02:09;;;;;;;43.95;34.78;;;19.70;59.20;;;;;;5049074;28;20029;-74
2023/01/16 23:04:36;;;;;;;49.13;33.50;;;19.70;59.60;;;;;;5049450;28;20413;-74
2023/01/16 23:07:03;;;;;;;42.92;32.10;;;19.70;59.30;;;;;;5049854;28;20028;-74
2023/01/16 23:09:29;;;;;;;42.65;32.42;;;19.70;59.00;;;;;;5048347;28;20122;-74
2023/01/16 23:11:55;;;;;;;45.97;32.58;;;19.80;59.90;;;;;;5050159;28;20033;-75
2023/01/16 23:14:23;;;;;;;40.72;31.60;;;19.80;59.80;;;;;;5050184;28;20059;-74
2023/01/16 23:16:52;;;;;;;39.10;31.08;;;19.70;59.30;;;;;;5049899;28;20033;-75
2023/01/16 23:19:27;;;;;;;37.50;29.75;;;19.70;60.00;;;;;;5031716;28;20111;-74
2023/01/16 23:21:53;;;;;;;40.63;29.63;;;19.70;59.10;;;;;;5049668;28;20028;-74
2023/01/16 23:24:22;;;;;;;36.40;29.33;;;19.70;58.90;;;;;;5049466;28;20031;-74
2023/01/16 23:26:49;;;;;;;36.95;29.45;;;19.70;59.20;;;;;;5047632;28;20388;-74
2023/01/16 23:29:15;;;;;;;37.17;29.00;;;19.70;59.20;;;;;;5048140;28;20060;-74
2023/01/16 23:31:43;;;;;;;40.00;29.25;;;19.70;59.20;;;;;;5048244;28;20107;-74
2023/01/16 23:34:11;;;;;;;35.63;28.77;;;19.80;59.20;;;;;;5049494;28;20405;-74
2023/01/16 23:36:37;;;;;;;35.92;28.33;;;19.80;59.10;;;;;;5049724;28;20453;-74
2023/01/16 23:39:07;;;;;;;36.42;27.90;;;19.70;59.10;;;;;;5049225;28;20060;-74
2023/01/16 23:44:28;;;;;;;34.40;27.48;;;19.80;59.30;;;;;;5049447;28;20025;-74
2023/01/16 23:46:58;;;;;;;32.33;25.02;;;19.80;59.20;;;;;;5049448;28;20122;-74
2023/01/16 23:49:30;;;;;;;38.80;27.13;;;19.80;59.30;;;;;;5048050;28;20068;-74
2023/01/16 23:51:55;;;;;;;37.08;26.48;;;19.80;59.20;;;;;;5048233;28;20057;-74
2023/01/16 23:54:21;;;;;;;36.55;25.65;;;19.80;59.20;;;;;;5049038;28;20467;-74
2023/01/16 23:56:47;;;;;;;33.25;25.77;;;19.80;59.10;;;;;;5048847;28;20144;-74
2023/01/16 23:59:12;;;;;;;35.70;27.25;;;19.80;59.30;;;;;;5031130;28;20031;-74
